sensor_id;sensor_type;location;lat;lon;timestamp;temperature;humidity
21123;DHT22;10719;48.130;11.630;2023-03-14T00:00:56;10.80;99.90
21123;DHT22;10719;48.130;11.630;2023-03-14T00:03:22;10.90;99.90
21123;DHT22;10719;48.130;11.630;2023-03-14T00:05:48;10.90;99.90
21123;DHT22;10719;48.130;11.630;2023-03-14T00:08:13;10.90;99.90
21123;DHT22;10719;48.130;11.630;2023-03-14T00:10:39;10.80;99.90
21123;DHT22;10719;48.130;11.630;2023-03-14T00:13:05;10.80;99.90
21123;DHT22;10719;48.130;11.630;2023-03-14T00:15:32;10.80;99.90
21123;DHT22;10719;48.130;11.630;2023-03-14T00:17:58;10.80;99.90
21123;DHT22;10719;48.130;11.630;2023-03-14T00:20:24;10.80;99.90
21123;DHT22;10719;48.130;11.630;2023-03-14T00:22:50;10.90;99.90
21123;DHT22;10719;48.130;11.630;2023-03-14T00:25:15;10.90;99.90
21123;DHT22;10719;48.130;11.630;2023-03-14T00:27:41;10.80;99.90
21123;DHT22;10719;48.130;11.630;2023-03-14T00:30:07;10.70;99.90
21123;DHT22;10719;48.130;11.630;2023-03-14T00:32:33;10.70;99.90
21123;DHT22;10719;48.130;11.630;2023-03-14T00:34:59;10.70;99.90
21123;DHT22;10719;48.130;11.630;2023-03-14T00:37:27;10.70;99.90
21123;DHT22;10719;48.130;11.630;2023-03-14T00:39:52;10.60;99.90
21123;DHT22;10719;48.130;11.630;2023-03-14T00:42:18;10.60;99.90
21123;DHT22;10719;48.130;11.630;2023-03-14T00:44:44;10.60;99.90
21123;DHT22;10719;48.130;11.630;2023-03-14T00:47:09;10.70;99.90
21123;DHT22;10719;48.130;11.630;2023-03-14T00:49:35;10.70;99.90
21123;DHT22;10719;48.130;11.630;2023-03-14T00:52:00;10.70;99.90
21123;DHT22;10719;48.130;11.630;2023-03-14T00:54:26;10.70;99.90
21123;DHT22;10719;48.130;11.630;2023-03-14T00:56:52;10.90;99.90
21123;DHT22;10719;48.130;11.630;2023-03-14T00:59:17;10.90;99.90
21123;DHT22;10719;48.130;11.630;2023-03-14T01:01:43;10.80;99.90
21123;DHT22;10719;48.130;11.630;2023-03-14T01:04:10;10.90;99.90
21123;DHT22;10719;48.130;11.630;2023-03-14T01:06:35;10.80;99.90
21123;DHT22;10719;48.130;11.630;2023-03-14T01:09:01;10.70;99.90
21123;DHT22;10719;48.130;11.630;2023-03-14T01:11:30;10.80;99.90
21123;DHT22;10719;48.130;11.630;2023-03-14T01:13:56;10.80;99.90
21123;DHT22;10719;48.130;11.630;2023-03-14T01:16:23;10.70;99.90
21123;DHT22;10719;48.130;11.630;2023-03-14T01:18:49;10.60;99.90
21123;DHT22;10719;48.130;11.630;2023-03-14T01:21:21;10.50;99.90
21123;DHT22;10719;48.130;11.630;2023-03-14T01:23:47;10.40;99.90
21123;DHT22;10719;48.130;11.630;2023-03-14T01:26:15;10.30;99.90
21123;DHT22;10719;48.130;11.630;2023-03-14T01:28:41;10.10;99.90
21123;DHT22;10719;48.130;11.630;2023-03-14T01:31:09;10.00;99.90
21123;DHT22;10719;48.130;11.630;2023-03-14T01:33:35;9.90;99.90
21123;DHT22;10719;48.130;11.630;2023-03-14T01:36:02;9.80;99.90
21123;DHT22;10719;48.130;11.630;2023-03-14T01:38:35;9.70;99.90
21123;DHT22;10719;48.130;11.630;2023-03-14T01:41:01;9.60;99.90
21123;DHT22;10719;48.130;11.630;2023-03-14T01:43:27;9.60;99.90
21123;DHT22;10719;48.130;11.630;2023-03-14T01:48:55;9.50;99.90
21123;DHT22;10719;48.130;11.630;2023-03-14T01:51:29;9.50;99.90
21123;DHT22;10719;48.130;11.630;2023-03-14T01:54:05;9.40;99.90
21123;DHT22;10719;48.130;11.630;2023-03-14T01:56:32;9.40;99.90
21123;DHT22;10719;48.130;11.630;2023-03-14T01:58:58;9.40;99.90
21123;DHT22;10719;48.130;11.630;2023-03-14T02:01:25;9.40;99.90
21123;DHT22;10719;48.130;11.630;2023-03-14T02:03:56;9.40;99.90
21123;DHT22;10719;48.130;11.630;2023-03-14T02:06:39;9.40;99.90
21123;DHT22;10719;48.130;11.630;2023-03-14T02:09:06;9.30;99.90
21123;DHT22;10719;48.130;11.630;2023-03-14T02:11:32;9.30;99.90
21123;DHT22;10719;48.130;11.630;2023-03-14T02:13:59;9.30;99.90
21123;DHT22;10719;48.130;11.630;2023-03-14T02:16:25;9.30;99.90
21123;DHT22;10719;48.130;11.630;2023-03-14T02:18:51;9.20;99.90
21123;DHT22;10719;48.130;11.630;2023-03-14T02:24:42;9.00;99.90
21123;DHT22;10719;48.130;11.630;2023-03-14T02:27:12;9.00;99.90
21123;DHT22;10719;48.130;11.630;2023-03-14T02:29:45;8.90;99.90
21123;DHT22;10719;48.130;11.630;2023-03-14T02:32:13;8.90;99.90
21123;DHT22;10719;48.130;11.630;2023-03-14T02:34:41;8.80;99.90
21123;DHT22;10719;48.130;11.630;2023-03-14T02:37:07;8.70;99.90
21123;DHT22;10719;48.130;11.630;2023-03-14T02:39:40;8.70;99.90
21123;DHT22;10719;48.130;11.630;2023-03-14T02:42:07;8.70;99.90
21123;DHT22;10719;48.130;11.630;2023-03-14T02:44:33;8.70;99.90
21123;DHT22;10719;48.130;11.630;2023-03-14T02:46:58;8.60;99.90
21123;DHT22;10719;48.130;11.630;2023-03-14T02:49:25;8.60;99.90
21123;DHT22;10719;48.130;11.630;2023-03-14T02:51:52;8.60;99.90
21123;DHT22;10719;48.130;11.630;2023-03-14T02:54:19;8.50;99.90
21123;DHT22;10719;48.130;11.630;2023-03-14T02:56:45;8.40;99.90
21123;DHT22;10719;48.130;11.630;2023-03-14T02:59:10;8.40;99.90
21123;DHT22;10719;48.130;11.630;2023-03-14T03:01:36;8.40;99.90
21123;DHT22;10719;48.130;11.630;2023-03-14T03:04:02;8.40;99.90
21123;DHT22;10719;48.130;11.630;2023-03-14T03:06:27;8.40;99.90
21123;DHT22;10719;48.130;11.630;2023-03-14T03:08:53;8.40;99.90
21123;DHT22;10719;48.130;11.630;2023-03-14T03:11:18;8.40;99.90
21123;DHT22;10719;48.130;11.630;2023-03-14T03:13:44;8.50;99.90
21123;DHT22;10719;48.130;11.630;2023-03-14T03:16:10;8.40;99.90
21123;DHT22;10719;48.130;11.630;2023-03-14T03:18:35;8.40;99.90
21123;DHT22;10719;48.130;11.630;2023-03-14T03:21:04;8.40;99.90
21123;DHT22;10719;48.130;11.630;2023-03-14T03:23:31;8.30;99.90
21123;DHT22;10719;48.130;11.630;2023-03-14T03:25:57;8.30;99.90
21123;DHT22;10719;48.130;11.630;2023-03-14T03:28:22;8.30;99.90
21123;DHT22;10719;48.130;11.630;2023-03-14T03:30:48;8.30;99.90
21123;DHT22;10719;48.130;11.630;2023-03-14T03:33:14;8.20;99.90
21123;DHT22;10719;48.130;11.630;2023-03-14T03:35:48;8.30;99.90
21123;DHT22;10719;48.130;11.630;2023-03-14T03:38:14;8.20;99.90
21123;DHT22;10719;48.130;11.630;2023-03-14T03:40:40;8.30;99.90
21123;DHT22;10719;48.130;11.630;2023-03-14T03:43:06;8.20;99.90
21123;DHT22;10719;48.130;11.630;2023-03-14T03:45:32;8.20;99.90
21123;DHT22;10719;48.130;11.630;2023-03-14T03:48:02;8.20;99.90
21123;DHT22;10719;48.130;11.630;2023-03-14T03:50:28;8.20;99.90
21123;DHT22;10719;48.130;11.630;2023-03-14T03:52:54;8.20;99.90
21123;DHT22;10719;48.130;11.630;2023-03-14T03:55:19;8.20;99.90
21123;DHT22;10719;48.130;11.630;2023-03-14T03:57:45;8.10;99.90
21123;DHT22;10719;48.130;11.630;2023-03-14T04:00:11;8.10;99.90
21123;DHT22;10719;48.130;11.630;2023-03-14T04:02:38;8.00;99.90
21123;DHT22;10719;48.130;11.630;2023-03-14T04:05:03;8.00;99.90
21123;DHT22;10719;48.130;11.630;2023-03-14T04:07:31;8.10;99.90
21123;DHT22;10719;48.130;11.630;2023-03-14T04:09:57;8.10;99.90
21123;DHT22;10719;48.130;11.630;2023-03-14T04:12:23;8.10;99.90
21123;DHT22;10719;48.130;11.630;2023-03-14T04:14:48;8.10;99.90
21123;DHT22;10719;48.130;11.630;2023-03-14T04:17:14;8.00;99.90
21123;DHT22;10719;48.130;11.630;2023-03-14T04:19:39;8.00;99.90
21123;DHT22;10719;48.130;11.630;2023-03-14T04:22:06;8.00;99.90
21123;DHT22;10719;48.130;11.630;2023-03-14T04:24:31;7.90;99.90
21123;DHT22;10719;48.130;11.630;2023-03-14T04:26:57;7.90;99.90
21123;DHT22;10719;48.130;11.630;2023-03-14T04:29:22;7.90;99.90
21123;DHT22;10719;48.130;11.630;2023-03-14T04:31:48;7.90;99.90
21123;DHT22;10719;48.130;11.630;2023-03-14T04:34:14;7.90;99.90
21123;DHT22;10719;48.130;11.630;2023-03-14T04:36:39;7.90;99.90
21123;DHT22;10719;48.130;11.630;2023-03-14T04:39:05;7.80;99.90
21123;DHT22;10719;48.130;11.630;2023-03-14T04:41:30;7.90;99.90
21123;DHT22;10719;48.130;11.630;2023-03-14T04:43:56;7.80;99.90
21123;DHT22;10719;48.130;11.630;2023-03-14T04:46:22;7.90;99.90
21123;DHT22;10719;48.130;11.630;2023-03-14T04:48:47;7.90;99.90
21123;DHT22;10719;48.130;11.630;2023-03-14T04:51:13;7.90;99.90
21123;DHT22;10719;48.130;11.630;2023-03-14T04:53:38;8.00;99.90
21123;DHT22;10719;48.130;11.630;2023-03-14T04:56:04;8.00;99.90
21123;DHT22;10719;48.130;11.630;2023-03-14T04:58:30;8.00;99.90
21123;DHT22;10719;48.130;11.630;2023-03-14T05:00:56;8.00;99.90
21123;DHT22;10719;48.130;11.630;2023-03-14T05:03:26;8.00;99.90
21123;DHT22;10719;48.130;11.630;2023-03-14T05:05:51;8.00;99.90
21123;DHT22;10719;48.130;11.630;2023-03-14T05:08:17;8.00;99.90
21123;DHT22;10719;48.130;11.630;2023-03-14T05:10:43;8.00;99.90
21123;DHT22;10719;48.130;11.630;2023-03-14T05:13:08;8.00;99.90
21123;DHT22;10719;48.130;11.630;2023-03-14T05:15:34;8.00;99.90
21123;DHT22;10719;48.130;11.630;2023-03-14T05:17:59;7.90;99.90
21123;DHT22;10719;48.130;11.630;2023-03-14T05:20:25;7.90;99.90
21123;DHT22;10719;48.130;11.630;2023-03-14T05:22:51;7.90;99.90
21123;DHT22;10719;48.130;11.630;2023-03-14T05:25:16;7.80;99.90
21123;DHT22;10719;48.130;11.630;2023-03-14T05:27:42;7.90;99.90
21123;DHT22;10719;48.130;11.630;2023-03-14T05:30:08;7.90;99.90
21123;DHT22;10719;48.130;11.630;2023-03-14T05:32:34;7.90;99.90
21123;DHT22;10719;48.130;11.630;2023-03-14T05:34:59;7.90;99.90
21123;DHT22;10719;48.130;11.630;2023-03-14T05:37:26;7.90;99.90
21123;DHT22;10719;48.130;11.630;2023-03-14T05:39:51;7.80;99.90
21123;DHT22;10719;48.130;11.630;2023-03-14T05:42:17;7.80;99.90
21123;DHT22;10719;48.130;11.630;2023-03-14T05:44:43;7.90;99.90
21123;DHT22;10719;48.130;11.630;2023-03-14T05:47:09;7.90;99.90
21123;DHT22;10719;48.130;11.630;2023-03-14T05:49:34;7.80;99.90
21123;DHT22;10719;48.130;11.630;2023-03-14T05:52:00;7.90;99.90
21123;DHT22;10719;48.130;11.630;2023-03-14T05:54:26;7.80;99.90
21123;DHT22;10719;48.130;11.630;2023-03-14T05:56:51;7.90;99.90
21123;DHT22;10719;48.130;11.630;2023-03-14T05:59:17;7.80;99.90
21123;DHT22;10719;48.130;11.630;2023-03-14T06:01:43;7.90;99.90
21123;DHT22;10719;48.130;11.630;2023-03-14T06:04:08;7.90;99.90
21123;DHT22;10719;48.130;11.630;2023-03-14T06:06:34;7.90;99.90
21123;DHT22;10719;48.130;11.630;2023-03-14T06:09:00;8.00;99.90
21123;DHT22;10719;48.130;11.630;2023-03-14T06:11:25;8.00;99.90
21123;DHT22;10719;48.130;11.630;2023-03-14T06:13:51;8.00;99.90
21123;DHT22;10719;48.130;11.630;2023-03-14T06:16:16;8.00;99.90
21123;DHT22;10719;48.130;11.630;2023-03-14T06:18:42;8.10;99.90
21123;DHT22;10719;48.130;11.630;2023-03-14T06:21:08;8.10;99.90
21123;DHT22;10719;48.130;11.630;2023-03-14T06:23:33;8.20;99.90
21123;DHT22;10719;48.130;11.630;2023-03-14T06:25:59;8.20;99.90
21123;DHT22;10719;48.130;11.630;2023-03-14T06:28:25;8.20;99.90
21123;DHT22;10719;48.130;11.630;2023-03-14T06:30:50;8.20;99.90
21123;DHT22;10719;48.130;11.630;2023-03-14T06:33:16;8.20;99.90
21123;DHT22;10719;48.130;11.630;2023-03-14T06:35:41;8.20;99.90
21123;DHT22;10719;48.130;11.630;2023-03-14T06:38:07;8.20;99.90
21123;DHT22;10719;48.130;11.630;2023-03-14T06:40:32;8.20;99.90
21123;DHT22;10719;48.130;11.630;2023-03-14T06:42:58;8.20;99.90
21123;DHT22;10719;48.130;11.630;2023-03-14T06:45:24;8.20;99.90
21123;DHT22;10719;48.130;11.630;2023-03-14T06:47:49;8.30;99.90
21123;DHT22;10719;48.130;11.630;2023-03-14T06:50:15;8.30;99.90
21123;DHT22;10719;48.130;11.630;2023-03-14T06:52:40;8.30;99.90
21123;DHT22;10719;48.130;11.630;2023-03-14T06:55:11;8.30;99.90
21123;DHT22;10719;48.130;11.630;2023-03-14T06:57:37;8.20;99.90
21123;DHT22;10719;48.130;11.630;2023-03-14T07:00:03;8.20;99.90
21123;DHT22;10719;48.130;11.630;2023-03-14T07:02:30;8.20;99.90
21123;DHT22;10719;48.130;11.630;2023-03-14T07:04:55;8.20;99.90
21123;DHT22;10719;48.130;11.630;2023-03-14T07:07:21;8.20;99.90
21123;DHT22;10719;48.130;11.630;2023-03-14T07:09:47;8.30;99.90
21123;DHT22;10719;48.130;11.630;2023-03-14T07:12:12;8.30;99.90
21123;DHT22;10719;48.130;11.630;2023-03-14T07:14:38;8.30;99.90
21123;DHT22;10719;48.130;11.630;2023-03-14T07:17:06;8.30;99.90
21123;DHT22;10719;48.130;11.630;2023-03-14T07:19:32;8.40;99.90
21123;DHT22;10719;48.130;11.630;2023-03-14T07:21:58;8.40;99.90
21123;DHT22;10719;48.130;11.630;2023-03-14T07:24:23;8.50;99.90
21123;DHT22;10719;48.130;11.630;2023-03-14T07:26:49;8.50;99.90
21123;DHT22;10719;48.130;11.630;2023-03-14T07:29:14;8.60;99.90
21123;DHT22;10719;48.130;11.630;2023-03-14T07:31:40;8.60;99.90
21123;DHT22;10719;48.130;11.630;2023-03-14T07:34:06;8.70;99.90
21123;DHT22;10719;48.130;11.630;2023-03-14T07:36:31;8.60;99.90
21123;DHT22;10719;48.130;11.630;2023-03-14T07:38:57;8.60;99.90
21123;DHT22;10719;48.130;11.630;2023-03-14T07:41:23;8.60;99.90
21123;DHT22;10719;48.130;11.630;2023-03-14T07:43:49;8.60;99.90
21123;DHT22;10719;48.130;11.630;2023-03-14T07:46:14;8.70;99.90
21123;DHT22;10719;48.130;11.630;2023-03-14T07:48:40;8.80;99.90
21123;DHT22;10719;48.130;11.630;2023-03-14T07:51:06;8.90;99.90
21123;DHT22;10719;48.130;11.630;2023-03-14T07:53:32;8.90;99.90
21123;DHT22;10719;48.130;11.630;2023-03-14T07:55:57;8.90;99.90
21123;DHT22;10719;48.130;11.630;2023-03-14T07:58:23;9.00;99.90
21123;DHT22;10719;48.130;11.630;2023-03-14T08:00:58;9.10;99.90
21123;DHT22;10719;48.130;11.630;2023-03-14T08:03:23;9.20;99.90
21123;DHT22;10719;48.130;11.630;2023-03-14T08:05:50;9.30;99.90
21123;DHT22;10719;48.130;11.630;2023-03-14T08:08:16;9.30;99.90
21123;DHT22;10719;48.130;11.630;2023-03-14T08:10:42;9.50;99.90
21123;DHT22;10719;48.130;11.630;2023-03-14T08:13:09;9.50;99.90
21123;DHT22;10719;48.130;11.630;2023-03-14T08:15:35;9.50;99.90
21123;DHT22;10719;48.130;11.630;2023-03-14T08:18:03;9.60;99.90
21123;DHT22;10719;48.130;11.630;2023-03-14T08:20:30;9.60;99.90
21123;DHT22;10719;48.130;11.630;2023-03-14T08:22:56;9.60;99.90
21123;DHT22;10719;48.130;11.630;2023-03-14T08:25:23;9.70;99.90
21123;DHT22;10719;48.130;11.630;2023-03-14T08:27:48;9.70;99.90
21123;DHT22;10719;48.130;11.630;2023-03-14T08:30:16;9.60;99.90
21123;DHT22;10719;48.130;11.630;2023-03-14T08:32:41;9.70;99.90
21123;DHT22;10719;48.130;11.630;2023-03-14T08:35:08;9.80;99.90
21123;DHT22;10719;48.130;11.630;2023-03-14T08:37:34;9.90;99.90
21123;DHT22;10719;48.130;11.630;2023-03-14T08:40:01;9.80;99.90
21123;DHT22;10719;48.130;11.630;2023-03-14T08:42:32;9.80;99.90
21123;DHT22;10719;48.130;11.630;2023-03-14T08:44:57;9.70;99.90
21123;DHT22;10719;48.130;11.630;2023-03-14T08:47:23;9.80;99.90
21123;DHT22;10719;48.130;11.630;2023-03-14T08:49:49;9.90;99.90
21123;DHT22;10719;48.130;11.630;2023-03-14T08:52:14;9.90;99.90
21123;DHT22;10719;48.130;11.630;2023-03-14T08:54:44;9.90;99.90
21123;DHT22;10719;48.130;11.630;2023-03-14T08:57:10;9.80;99.90
21123;DHT22;10719;48.130;11.630;2023-03-14T08:59:36;9.90;99.90
21123;DHT22;10719;48.130;11.630;2023-03-14T09:02:02;9.90;99.90
21123;DHT22;10719;48.130;11.630;2023-03-14T09:04:32;10.00;99.90
21123;DHT22;10719;48.130;11.630;2023-03-14T09:06:58;9.90;99.90
21123;DHT22;10719;48.130;11.630;2023-03-14T09:09:25;10.00;99.90
21123;DHT22;10719;48.130;11.630;2023-03-14T09:11:52;10.10;99.90
21123;DHT22;10719;48.130;11.630;2023-03-14T09:14:18;10.20;99.90
21123;DHT22;10719;48.130;11.630;2023-03-14T09:16:44;10.20;99.90
21123;DHT22;10719;48.130;11.630;2023-03-14T09:19:09;10.20;99.90
21123;DHT22;10719;48.130;11.630;2023-03-14T09:21:35;10.20;99.90
21123;DHT22;10719;48.130;11.630;2023-03-14T09:24:01;10.30;99.90
21123;DHT22;10719;48.130;11.630;2023-03-14T09:26:27;10.20;99.90
21123;DHT22;10719;48.130;11.630;2023-03-14T09:28:53;10.20;99.90
21123;DHT22;10719;48.130;11.630;2023-03-14T09:31:18;10.20;99.90
21123;DHT22;10719;48.130;11.630;2023-03-14T09:33:44;10.20;99.90
21123;DHT22;10719;48.130;11.630;2023-03-14T09:36:10;10.20;99.90
21123;DHT22;10719;48.130;11.630;2023-03-14T09:38:36;10.20;99.90
21123;DHT22;10719;48.130;11.630;2023-03-14T09:41:08;10.10;99.90
21123;DHT22;10719;48.130;11.630;2023-03-14T09:43:36;10.10;99.90
21123;DHT22;10719;48.130;11.630;2023-03-14T09:46:03;10.10;99.90
21123;DHT22;10719;48.130;11.630;2023-03-14T09:48:32;10.10;99.90
21123;DHT22;10719;48.130;11.630;2023-03-14T09:51:00;10.00;99.90
21123;DHT22;10719;48.130;11.630;2023-03-14T09:53:39;9.90;99.90
21123;DHT22;10719;48.130;11.630;2023-03-14T09:56:14;10.00;99.90
21123;DHT22;10719;48.130;11.630;2023-03-14T09:58:44;10.00;99.90
21123;DHT22;10719;48.130;11.630;2023-03-14T10:01:15;10.10;99.90
21123;DHT22;10719;48.130;11.630;2023-03-14T10:03:42;10.10;99.90
21123;DHT22;10719;48.130;11.630;2023-03-14T10:06:13;10.10;99.90
21123;DHT22;10719;48.130;11.630;2023-03-14T10:08:43;10.10;99.90
21123;DHT22;10719;48.130;11.630;2023-03-14T10:11:15;10.10;99.90
21123;DHT22;10719;48.130;11.630;2023-03-14T10:14:08;10.20;99.90
21123;DHT22;10719;48.130;11.630;2023-03-14T10:16:45;10.20;99.90
21123;DHT22;10719;48.130;11.630;2023-03-14T10:19:13;10.40;99.90
21123;DHT22;10719;48.130;11.630;2023-03-14T10:21:41;10.60;99.90
21123;DHT22;10719;48.130;11.630;2023-03-14T10:24:31;10.60;99.90
21123;DHT22;10719;48.130;11.630;2023-03-14T10:27:03;10.80;99.90
21123;DHT22;10719;48.130;11.630;2023-03-14T10:29:31;10.90;99.90
21123;DHT22;10719;48.130;11.630;2023-03-14T10:32:10;11.20;99.90
21123;DHT22;10719;48.130;11.630;2023-03-14T10:34:42;11.90;99.90
21123;DHT22;10719;48.130;11.630;2023-03-14T10:37:26;13.10;99.90
21123;DHT22;10719;48.130;11.630;2023-03-14T10:39:54;13.60;99.90
21123;DHT22;10719;48.130;11.630;2023-03-14T10:42:31;13.60;99.90
21123;DHT22;10719;48.130;11.630;2023-03-14T10:45:02;13.00;99.90
21123;DHT22;10719;48.130;11.630;2023-03-14T10:47:29;13.00;99.90
21123;DHT22;10719;48.130;11.630;2023-03-14T10:49:56;13.50;99.90
21123;DHT22;10719;48.130;11.630;2023-03-14T10:52:28;14.30;99.90
21123;DHT22;10719;48.130;11.630;2023-03-14T10:55:08;14.00;99.90
21123;DHT22;10719;48.130;11.630;2023-03-14T10:57:38;13.20;99.90
21123;DHT22;10719;48.130;11.630;2023-03-14T11:00:08;12.90;99.90
21123;DHT22;10719;48.130;11.630;2023-03-14T11:02:49;12.60;99.90
21123;DHT22;10719;48.130;11.630;2023-03-14T11:05:34;12.20;99.90
21123;DHT22;10719;48.130;11.630;2023-03-14T11:08:11;12.00;99.90
21123;DHT22;10719;48.130;11.630;2023-03-14T11:10:44;12.00;99.90
21123;DHT22;10719;48.130;11.630;2023-03-14T11:13:49;12.10;99.90
21123;DHT22;10719;48.130;11.630;2023-03-14T11:19:20;12.10;99.90
21123;DHT22;10719;48.130;11.630;2023-03-14T11:21:55;12.00;99.90
21123;DHT22;10719;48.130;11.630;2023-03-14T11:27:02;12.30;99.90
21123;DHT22;10719;48.130;11.630;2023-03-14T11:29:40;12.40;99.90
21123;DHT22;10719;48.130;11.630;2023-03-14T11:32:17;12.60;99.90
21123;DHT22;10719;48.130;11.630;2023-03-14T11:34:54;12.60;99.90
21123;DHT22;10719;48.130;11.630;2023-03-14T11:37:33;12.90;99.90
21123;DHT22;10719;48.130;11.630;2023-03-14T11:42:35;13.40;99.90
21123;DHT22;10719;48.130;11.630;2023-03-14T11:45:01;13.20;99.90
21123;DHT22;10719;48.130;11.630;2023-03-14T11:47:38;13.10;99.90
21123;DHT22;10719;48.130;11.630;2023-03-14T11:50:16;13.10;99.90
21123;DHT22;10719;48.130;11.630;2023-03-14T11:53:19;13.20;99.90
21123;DHT22;10719;48.130;11.630;2023-03-14T11:55:47;12.90;99.90
21123;DHT22;10719;48.130;11.630;2023-03-14T11:58:23;12.90;99.90
21123;DHT22;10719;48.130;11.630;2023-03-14T12:00:51;12.70;99.90
21123;DHT22;10719;48.130;11.630;2023-03-14T12:08:38;12.30;99.90
21123;DHT22;10719;48.130;11.630;2023-03-14T12:14:36;12.60;99.90
21123;DHT22;10719;48.130;11.630;2023-03-14T12:17:41;12.60;99.90
21123;DHT22;10719;48.130;11.630;2023-03-14T12:20:22;12.70;99.90
21123;DHT22;10719;48.130;11.630;2023-03-14T12:23:03;12.60;99.90
21123;DHT22;10719;48.130;11.630;2023-03-14T12:25:31;12.50;99.90
21123;DHT22;10719;48.130;11.630;2023-03-14T12:30:33;12.30;99.90
21123;DHT22;10719;48.130;11.630;2023-03-14T12:35:50;12.30;99.90
21123;DHT22;10719;48.130;11.630;2023-03-14T12:38:45;12.40;99.90
21123;DHT22;10719;48.130;11.630;2023-03-14T12:41:38;12.30;99.90
21123;DHT22;10719;48.130;11.630;2023-03-14T12:47:00;12.40;99.90
21123;DHT22;10719;48.130;11.630;2023-03-14T12:49:50;12.60;99.90
21123;DHT22;10719;48.130;11.630;2023-03-14T12:52:17;12.70;99.90
21123;DHT22;10719;48.130;11.630;2023-03-14T12:55:08;13.00;99.90
21123;DHT22;10719;48.130;11.630;2023-03-14T13:00:30;14.40;99.90
21123;DHT22;10719;48.130;11.630;2023-03-14T13:03:13;14.10;99.90
21123;DHT22;10719;48.130;11.630;2023-03-14T13:05:57;13.80;99.90
21123;DHT22;10719;48.130;11.630;2023-03-14T13:08:38;13.60;99.90
21123;DHT22;10719;48.130;11.630;2023-03-14T13:11:19;13.50;99.90
21123;DHT22;10719;48.130;11.630;2023-03-14T13:13:48;13.20;99.90
21123;DHT22;10719;48.130;11.630;2023-03-14T13:16:17;12.70;99.90
21123;DHT22;10719;48.130;11.630;2023-03-14T13:18:49;12.60;99.90
21123;DHT22;10719;48.130;11.630;2023-03-14T13:21:22;12.50;99.90
21123;DHT22;10719;48.130;11.630;2023-03-14T13:24:04;13.00;99.90
21123;DHT22;10719;48.130;11.630;2023-03-14T13:26:44;13.50;99.90
21123;DHT22;10719;48.130;11.630;2023-03-14T13:31:46;12.90;99.90
21123;DHT22;10719;48.130;11.630;2023-03-14T13:34:12;12.50;99.90
21123;DHT22;10719;48.130;11.630;2023-03-14T13:36:38;12.40;99.90
21123;DHT22;10719;48.130;11.630;2023-03-14T13:39:10;12.20;99.90
21123;DHT22;10719;48.130;11.630;2023-03-14T13:41:39;11.80;99.90
21123;DHT22;10719;48.130;11.630;2023-03-14T13:46:49;11.60;99.90
21123;DHT22;10719;48.130;11.630;2023-03-14T13:49:22;11.30;99.90
21123;DHT22;10719;48.130;11.630;2023-03-14T13:51:49;11.30;99.90
21123;DHT22;10719;48.130;11.630;2023-03-14T13:54:16;11.00;99.90
21123;DHT22;10719;48.130;11.630;2023-03-14T13:56:43;10.80;99.90
21123;DHT22;10719;48.130;11.630;2023-03-14T13:59:35;10.60;99.90
21123;DHT22;10719;48.130;11.630;2023-03-14T14:02:12;10.40;99.90
21123;DHT22;10719;48.130;11.630;2023-03-14T14:04:38;10.00;99.90
21123;DHT22;10719;48.130;11.630;2023-03-14T14:07:09;9.90;99.90
21123;DHT22;10719;48.130;11.630;2023-03-14T14:09:42;9.60;99.90
21123;DHT22;10719;48.130;11.630;2023-03-14T14:12:13;9.50;99.90
21123;DHT22;10719;48.130;11.630;2023-03-14T14:14:53;9.40;99.90
21123;DHT22;10719;48.130;11.630;2023-03-14T14:17:26;9.20;99.90
21123;DHT22;10719;48.130;11.630;2023-03-14T14:19:53;9.00;99.90
21123;DHT22;10719;48.130;11.630;2023-03-14T14:22:22;8.90;99.90
21123;DHT22;10719;48.130;11.630;2023-03-14T14:24:48;8.80;99.90
21123;DHT22;10719;48.130;11.630;2023-03-14T14:27:28;8.60;99.90
21123;DHT22;10719;48.130;11.630;2023-03-14T14:29:59;8.60;99.90
21123;DHT22;10719;48.130;11.630;2023-03-14T14:32:26;8.40;99.90
21123;DHT22;10719;48.130;11.630;2023-03-14T14:37:50;8.10;99.90
21123;DHT22;10719;48.130;11.630;2023-03-14T14:40:21;7.90;99.90
21123;DHT22;10719;48.130;11.630;2023-03-14T14:42:48;7.70;99.90
21123;DHT22;10719;48.130;11.630;2023-03-14T14:45:21;7.60;99.90
21123;DHT22;10719;48.130;11.630;2023-03-14T14:48:21;7.50;99.90
21123;DHT22;10719;48.130;11.630;2023-03-14T14:53:21;7.40;99.90
21123;DHT22;10719;48.130;11.630;2023-03-14T14:55:51;7.30;99.90
21123;DHT22;10719;48.130;11.630;2023-03-14T14:58:35;7.30;99.90
21123;DHT22;10719;48.130;11.630;2023-03-14T15:01:21;7.30;99.90
21123;DHT22;10719;48.130;11.630;2023-03-14T15:03:50;7.30;99.90
21123;DHT22;10719;48.130;11.630;2023-03-14T15:06:17;7.30;99.90
21123;DHT22;10719;48.130;11.630;2023-03-14T15:08:44;7.30;99.90
21123;DHT22;10719;48.130;11.630;2023-03-14T15:11:24;7.30;99.90
21123;DHT22;10719;48.130;11.630;2023-03-14T15:13:51;7.30;99.90
21123;DHT22;10719;48.130;11.630;2023-03-14T15:16:20;7.30;99.90
21123;DHT22;10719;48.130;11.630;2023-03-14T15:18:52;7.40;99.90
21123;DHT22;10719;48.130;11.630;2023-03-14T15:21:18;7.40;99.90
21123;DHT22;10719;48.130;11.630;2023-03-14T15:23:44;7.40;99.90
21123;DHT22;10719;48.130;11.630;2023-03-14T15:26:34;7.40;99.90
21123;DHT22;10719;48.130;11.630;2023-03-14T15:29:00;7.50;99.90
21123;DHT22;10719;48.130;11.630;2023-03-14T15:31:25;7.50;99.90
21123;DHT22;10719;48.130;11.630;2023-03-14T15:33:51;7.50;99.90
21123;DHT22;10719;48.130;11.630;2023-03-14T15:36:24;7.50;99.90
21123;DHT22;10719;48.130;11.630;2023-03-14T15:38:51;7.50;99.90
21123;DHT22;10719;48.130;11.630;2023-03-14T15:41:18;7.40;99.90
21123;DHT22;10719;48.130;11.630;2023-03-14T15:43:44;7.20;99.90
21123;DHT22;10719;48.130;11.630;2023-03-14T15:46:10;7.10;99.90
21123;DHT22;10719;48.130;11.630;2023-03-14T15:48:36;7.00;99.90
21123;DHT22;10719;48.130;11.630;2023-03-14T15:51:02;6.90;99.90
21123;DHT22;10719;48.130;11.630;2023-03-14T15:53:27;6.90;99.90
21123;DHT22;10719;48.130;11.630;2023-03-14T15:55:53;6.70;99.90
21123;DHT22;10719;48.130;11.630;2023-03-14T15:58:20;6.60;99.90
21123;DHT22;10719;48.130;11.630;2023-03-14T16:00:45;6.40;99.90
21123;DHT22;10719;48.130;11.630;2023-03-14T16:03:11;6.40;99.90
21123;DHT22;10719;48.130;11.630;2023-03-14T16:05:38;6.20;99.90
21123;DHT22;10719;48.130;11.630;2023-03-14T16:08:04;6.10;99.90
21123;DHT22;10719;48.130;11.630;2023-03-14T16:10:30;6.10;99.90
21123;DHT22;10719;48.130;11.630;2023-03-14T16:12:56;6.10;99.90
21123;DHT22;10719;48.130;11.630;2023-03-14T16:15:22;6.20;99.90
21123;DHT22;10719;48.130;11.630;2023-03-14T16:17:51;6.30;99.90
21123;DHT22;10719;48.130;11.630;2023-03-14T16:20:17;6.30;99.90